createdAt,value
2022-08-18T00:00:20.082Z,100.00
2022-08-18T00:03:00.520Z,100.00
2022-08-18T00:05:28.256Z,100.00
2022-08-18T00:07:57.809Z,100.00
2022-08-18T00:10:25.515Z,100.00
2022-08-18T00:12:52.167Z,100.00
2022-08-18T00:15:25.128Z,100.00
2022-08-18T00:17:51.609Z,100.00
2022-08-18T00:20:21.601Z,100.00
2022-08-18T00:22:49.231Z,100.00
2022-08-18T00:25:18.917Z,100.00
2022-08-18T00:27:45.676Z,100.00
2022-08-18T00:30:16.093Z,100.00
2022-08-18T00:32:46.745Z,100.00
2022-08-18T00:35:18.277Z,100.00
2022-08-18T00:37:45.207Z,100.00
2022-08-18T00:40:16.341Z,100.00
2022-08-18T00:42:50.078Z,100.00
2022-08-18T00:45:21.469Z,100.00
2022-08-18T00:47:47.920Z,100.00
2022-08-18T00:50:16.320Z,100.00
2022-08-18T00:52:48.800Z,100.00
2022-08-18T00:55:17.971Z,100.00
2022-08-18T00:57:45.089Z,100.00
2022-08-18T01:00:13.384Z,100.00
2022-08-18T01:02:43.910Z,100.00
2022-08-18T01:05:30.411Z,100.00
2022-08-18T01:07:57.319Z,100.00
2022-08-18T01:10:24.489Z,100.00
2022-08-18T01:12:55.741Z,100.00
2022-08-18T01:15:28.914Z,100.00
2022-08-18T01:18:17.825Z,100.00
2022-08-18T01:21:21.792Z,100.00
2022-08-18T01:23:49.721Z,100.00
2022-08-18T01:26:18.232Z,100.00
2022-08-18T01:28:46.633Z,100.00
2022-08-18T01:31:30.111Z,100.00
2022-08-18T01:33:57.420Z,100.00
2022-08-18T01:36:23.941Z,100.00
2022-08-18T01:38:51.594Z,100.00
2022-08-18T01:41:28.411Z,100.00
2022-08-18T01:43:58.406Z,100.00
2022-08-18T01:46:24.837Z,100.00
2022-08-18T01:48:51.283Z,100.00
2022-08-18T01:51:20.400Z,100.00
2022-08-18T01:54:05.178Z,100.00
2022-08-18T01:56:31.636Z,100.00
2022-08-18T01:58:58.059Z,100.00
2022-08-18T02:01:36.259Z,100.00
2022-08-18T02:04:33.337Z,100.00
2022-08-18T02:06:53.632Z,100.00
2022-08-18T02:09:24.128Z,100.00
2022-08-18T02:11:55.940Z,100.00
2022-08-18T02:14:27.004Z,100.00
2022-08-18T02:17:01.487Z,100.00
2022-08-18T02:19:32.947Z,100.00
2022-08-18T02:22:00.308Z,100.00
2022-08-18T02:24:26.809Z,100.00
2022-08-18T02:26:53.369Z,100.00
2022-08-18T02:29:21.867Z,100.00
2022-08-18T02:31:48.212Z,100.00
2022-08-18T02:34:15.901Z,100.00
2022-08-18T02:36:42.434Z,100.00
2022-08-18T02:39:08.757Z,100.00
2022-08-18T02:41:36.463Z,100.00
2022-08-18T02:44:04.731Z,100.00
2022-08-18T02:46:31.572Z,100.00
2022-08-18T02:49:00.234Z,100.00
2022-08-18T02:51:27.004Z,100.00
2022-08-18T02:53:54.240Z,100.00
2022-08-18T02:56:40.596Z,100.00
2022-08-18T02:59:19.868Z,100.00
2022-08-18T03:01:51.294Z,100.00
2022-08-18T03:04:28.130Z,100.00
2022-08-18T03:06:57.157Z,100.00
2022-08-18T03:09:24.180Z,100.00
2022-08-18T03:11:50.645Z,100.00
2022-08-18T03:14:17.045Z,100.00
2022-08-18T03:16:54.240Z,100.00
2022-08-18T03:19:29.371Z,100.00
2022-08-18T03:21:59.368Z,100.00
2022-08-18T03:24:29.236Z,100.00
2022-08-18T03:26:59.393Z,100.00
2022-08-18T03:29:31.734Z,100.00
2022-08-18T03:32:00.805Z,100.00
2022-08-18T03:34:27.381Z,100.00
2022-08-18T03:36:54.175Z,100.00
2022-08-18T03:39:23.528Z,100.00
2022-08-18T03:41:59.550Z,100.00
2022-08-18T03:44:30.367Z,100.00
2022-08-18T03:46:57.369Z,100.00
2022-08-18T03:49:23.839Z,100.00
2022-08-18T03:51:51.674Z,100.00
2022-08-18T03:54:18.857Z,100.00
2022-08-18T03:56:47.519Z,100.00
2022-08-18T03:59:23.221Z,100.00
2022-08-18T04:01:54.087Z,100.00
2022-08-18T04:04:27.812Z,100.00
2022-08-18T04:06:58.474Z,100.00
2022-08-18T04:09:27.733Z,100.00
2022-08-18T04:11:54.308Z,100.00
2022-08-18T04:14:24.757Z,100.00
2022-08-18T04:16:52.269Z,100.00
2022-08-18T04:19:26.276Z,100.00
2022-08-18T04:21:56.333Z,100.00
2022-08-18T04:24:23.145Z,100.00
2022-08-18T04:26:50.333Z,100.00
2022-08-18T04:29:20.356Z,100.00
2022-08-18T04:31:47.881Z,100.00
2022-08-18T04:34:15.451Z,100.00
2022-08-18T04:36:43.235Z,100.00
2022-08-18T04:39:11.812Z,100.00
2022-08-18T04:41:40.301Z,100.00
2022-08-18T04:44:08.724Z,100.00
2022-08-18T04:46:39.965Z,100.00
2022-08-18T04:49:09.234Z,100.00
2022-08-18T04:52:26.720Z,100.00
2022-08-18T04:54:24.778Z,100.00
2022-08-18T04:56:51.244Z,100.00
2022-08-18T04:59:18.321Z,100.00
2022-08-18T05:01:47.634Z,100.00
2022-08-18T05:04:17.167Z,100.00
2022-08-18T05:06:45.583Z,100.00
2022-08-18T05:09:16.274Z,100.00
2022-08-18T05:11:46.708Z,100.00
2022-08-18T05:14:13.128Z,100.00
2022-08-18T05:16:47.979Z,100.00
2022-08-18T05:19:21.984Z,100.00
2022-08-18T05:21:51.583Z,100.00
2022-08-18T05:24:20.166Z,100.00
2022-08-18T05:26:47.491Z,100.00
2022-08-18T05:29:17.782Z,100.00
2022-08-18T05:31:46.163Z,100.00
2022-08-18T05:34:12.608Z,100.00
2022-08-18T05:36:48.168Z,100.00
2022-08-18T05:39:17.628Z,100.00
2022-08-18T05:41:49.204Z,100.00
2022-08-18T05:44:24.567Z,100.00
2022-08-18T05:46:55.129Z,100.00
2022-08-18T05:49:24.340Z,100.00
2022-08-18T05:51:55.098Z,100.00
2022-08-18T05:54:46.720Z,100.00
2022-08-18T05:57:21.282Z,100.00
2022-08-18T05:59:52.137Z,100.00
2022-08-18T06:02:33.214Z,100.00
2022-08-18T06:05:04.215Z,100.00
2022-08-18T06:07:54.561Z,100.00
2022-08-18T06:10:21.796Z,100.00
2022-08-18T06:12:52.158Z,100.00
2022-08-18T06:15:40.879Z,100.00
2022-08-18T06:18:28.249Z,100.00
2022-08-18T06:21:11.496Z,100.00
2022-08-18T06:23:43.661Z,100.00
2022-08-18T06:26:34.325Z,100.00
2022-08-18T06:29:24.872Z,100.00
2022-08-18T06:31:51.267Z,100.00
2022-08-18T06:34:26.819Z,100.00
2022-08-18T06:37:10.401Z,100.00
2022-08-18T06:39:57.116Z,100.00
2022-08-18T06:42:30.514Z,100.00
2022-08-18T06:45:12.883Z,100.00
2022-08-18T06:47:49.329Z,100.00
2022-08-18T06:50:40.048Z,100.00
2022-08-18T06:53:27.363Z,100.00
2022-08-18T06:55:55.292Z,100.00
2022-08-18T06:58:27.612Z,100.00
2022-08-18T07:00:55.977Z,100.00
2022-08-18T07:03:36.483Z,100.00
2022-08-18T07:06:32.272Z,100.00
2022-08-18T07:09:27.541Z,100.00
2022-08-18T07:12:05.428Z,100.00
2022-08-18T07:14:42.953Z,100.00
2022-08-18T07:17:22.215Z,100.00
2022-08-18T07:20:20.186Z,100.00
2022-08-18T07:23:02.531Z,100.00
2022-08-18T07:25:41.863Z,100.00
2022-08-18T07:28:27.984Z,100.00
2022-08-18T07:31:17.451Z,100.00
2022-08-18T07:33:51.346Z,100.00
2022-08-18T07:36:21.503Z,100.00
2022-08-18T07:39:00.253Z,100.00
2022-08-18T07:41:40.864Z,100.00
2022-08-18T07:44:18.298Z,100.00
2022-08-18T07:47:06.789Z,100.00
2022-08-18T07:49:36.471Z,100.00
2022-08-18T07:52:36.287Z,100.00
2022-08-18T07:55:25.719Z,100.00
2022-08-18T07:58:14.103Z,100.00
2022-08-18T08:01:03.444Z,100.00
2022-08-18T08:03:44.976Z,100.00
2022-08-18T08:06:30.243Z,100.00
2022-08-18T08:08:59.688Z,100.00
2022-08-18T08:11:41.313Z,100.00
2022-08-18T08:14:26.871Z,100.00
2022-08-18T08:17:17.222Z,100.00
2022-08-18T08:20:12.378Z,100.00
2022-08-18T08:23:01.344Z,100.00
2022-08-18T08:25:49.526Z,100.00
2022-08-18T08:28:39.430Z,100.00
2022-08-18T08:31:36.342Z,100.00
2022-08-18T08:34:07.971Z,100.00
2022-08-18T08:36:39.498Z,100.00
2022-08-18T08:39:21.296Z,100.00
2022-08-18T08:42:29.292Z,100.00
2022-08-18T08:44:59.206Z,100.00
2022-08-18T08:47:34.726Z,100.00
2022-08-18T08:50:06.982Z,100.00
2022-08-18T08:52:36.255Z,100.00
2022-08-18T08:55:33.994Z,100.00
2022-08-18T08:58:03.392Z,100.00
2022-08-18T09:00:31.115Z,100.00
2022-08-18T09:03:31.673Z,100.00
2022-08-18T09:06:07.154Z,100.00
2022-08-18T09:08:40.245Z,100.00
2022-08-18T09:11:22.273Z,100.00
2022-08-18T09:14:15.139Z,100.00
2022-08-18T09:17:19.429Z,100.00
2022-08-18T09:20:18.288Z,100.00
2022-08-18T09:22:53.043Z,100.00
2022-08-18T09:25:34.335Z,100.00
2022-08-18T09:28:15.018Z,100.00
2022-08-18T09:30:49.229Z,100.00
2022-08-18T09:33:33.438Z,100.00
2022-08-18T09:36:19.971Z,100.00
2022-08-18T09:39:33.175Z,100.00
2022-08-18T09:42:04.276Z,100.00
2022-08-18T09:44:46.791Z,100.00
2022-08-18T09:47:24.240Z,100.00
2022-08-18T09:49:57.767Z,100.00
2022-08-18T09:52:49.084Z,100.00
2022-08-18T09:55:18.533Z,100.00
2022-08-18T09:57:47.815Z,100.00
2022-08-18T10:00:30.921Z,100.00
2022-08-18T10:03:01.080Z,100.00
2022-08-18T10:05:31.015Z,98.41
2022-08-18T10:08:03.559Z,98.20
2022-08-18T10:11:09.286Z,98.17
2022-08-18T10:13:49.592Z,97.17
2022-08-18T10:16:28.539Z,96.32
2022-08-18T10:19:34.004Z,100.00
2022-08-18T10:22:09.473Z,100.00
2022-08-18T10:24:55.331Z,100.00
2022-08-18T10:27:46.535Z,100.00
2022-08-18T10:30:56.936Z,100.00
2022-08-18T10:34:19.153Z,100.00
2022-08-18T10:36:53.033Z,100.00
2022-08-18T10:39:31.213Z,100.00
2022-08-18T10:42:24.572Z,100.00
2022-08-18T10:45:24.690Z,100.00
2022-08-18T10:48:11.829Z,100.00
2022-08-18T10:50:59.906Z,100.00
2022-08-18T10:53:44.463Z,100.00
2022-08-18T10:56:35.562Z,100.00
2022-08-18T10:59:18.060Z,100.00
2022-08-18T11:01:57.006Z,100.00
2022-08-18T11:04:43.021Z,99.60
2022-08-18T11:07:28.710Z,99.46
2022-08-18T11:10:27.816Z,99.32
2022-08-18T11:13:14.917Z,99.39
2022-08-18T11:19:03.449Z,99.41
2022-08-18T11:21:42.354Z,100.00
2022-08-18T11:24:15.919Z,100.00
2022-08-18T11:26:54.666Z,100.00
2022-08-18T11:29:37.329Z,100.00
2022-08-18T11:32:32.702Z,100.00
2022-08-18T11:35:04.153Z,100.00
2022-08-18T11:37:52.329Z,100.00
2022-08-18T11:43:16.032Z,100.00
2022-08-18T11:45:57.435Z,100.00
2022-08-18T11:48:51.337Z,100.00
2022-08-18T11:51:25.798Z,100.00
2022-08-18T11:54:04.815Z,98.07
2022-08-18T11:56:36.083Z,98.82
2022-08-18T11:59:52.244Z,96.72
2022-08-18T12:02:21.316Z,96.20
2022-08-18T12:04:54.999Z,95.44
2022-08-18T12:07:30.943Z,95.21
2022-08-18T12:10:28.441Z,95.71
2022-08-18T12:12:59.614Z,95.68
2022-08-18T12:15:43.991Z,96.48
2022-08-18T12:21:02.738Z,93.37
2022-08-18T12:23:38.508Z,92.95
2022-08-18T12:26:05.814Z,95.34
2022-08-18T12:28:52.303Z,94.82
2022-08-18T12:31:18.765Z,95.77
2022-08-18T12:33:48.155Z,97.48
2022-08-18T12:36:29.745Z,96.71
2022-08-18T12:38:57.085Z,96.95
2022-08-18T12:41:24.344Z,96.91
2022-08-18T12:43:58.904Z,98.35
2022-08-18T12:46:26.600Z,99.78
2022-08-18T12:48:53.158Z,98.57
2022-08-18T12:51:20.772Z,98.87
2022-08-18T12:53:59.491Z,99.27
2022-08-18T12:56:30.709Z,98.54
2022-08-18T12:59:03.941Z,100.00
2022-08-18T13:01:32.527Z,100.00
2022-08-18T13:04:11.127Z,100.00
2022-08-18T13:06:58.745Z,100.00
2022-08-18T13:09:35.371Z,100.00
2022-08-18T13:12:16.138Z,100.00
2022-08-18T13:14:43.338Z,100.00
2022-08-18T13:17:15.348Z,100.00
2022-08-18T13:19:56.974Z,100.00
2022-08-18T13:22:24.221Z,100.00
2022-08-18T13:25:01.018Z,100.00
2022-08-18T13:27:32.962Z,100.00
2022-08-18T13:30:29.830Z,100.00
2022-08-18T13:32:58.743Z,100.00
2022-08-18T13:35:26.532Z,100.00
2022-08-18T13:37:56.784Z,100.00
2022-08-18T13:40:23.345Z,100.00
2022-08-18T13:42:55.897Z,100.00
2022-08-18T13:45:25.666Z,100.00
2022-08-18T13:47:52.661Z,100.00
2022-08-18T13:50:20.610Z,100.00
2022-08-18T13:53:00.775Z,100.00
2022-08-18T13:55:28.984Z,100.00
2022-08-18T13:57:55.935Z,100.00
2022-08-18T14:00:30.369Z,100.00
2022-08-18T14:03:00.513Z,100.00
2022-08-18T14:05:36.881Z,100.00
2022-08-18T14:08:19.490Z,100.00
2022-08-18T14:10:51.111Z,100.00
2022-08-18T14:13:20.631Z,100.00
2022-08-18T14:15:54.970Z,100.00
2022-08-18T14:18:29.086Z,100.00
2022-08-18T14:21:16.239Z,100.00
2022-08-18T14:24:05.758Z,100.00
2022-08-18T14:26:49.961Z,100.00
2022-08-18T14:29:45.541Z,100.00
2022-08-18T14:32:07.105Z,100.00
2022-08-18T14:34:33.672Z,100.00
2022-08-18T14:37:00.130Z,100.00
2022-08-18T14:39:27.524Z,100.00
2022-08-18T14:41:54.742Z,100.00
2022-08-18T14:44:23.872Z,100.00
2022-08-18T14:46:52.564Z,100.00
2022-08-18T14:49:28.369Z,100.00
2022-08-18T14:51:56.022Z,100.00
2022-08-18T14:54:23.671Z,100.00
2022-08-18T14:56:54.935Z,100.00
2022-08-18T14:59:23.083Z,100.00
2022-08-18T15:01:49.686Z,100.00
2022-08-18T15:04:19.090Z,100.00
2022-08-18T15:06:55.677Z,100.00
2022-08-18T15:09:26.940Z,100.00
2022-08-18T15:11:56.170Z,100.00
2022-08-18T15:14:32.657Z,100.00
2022-08-18T15:17:01.025Z,100.00
2022-08-18T15:19:58.854Z,100.00
2022-08-18T15:22:32.880Z,100.00
2022-08-18T15:25:17.772Z,100.00
2022-08-18T15:27:44.805Z,100.00
2022-08-18T15:30:19.465Z,100.00
2022-08-18T15:32:47.764Z,100.00
2022-08-18T15:35:17.265Z,100.00
2022-08-18T15:37:45.692Z,100.00
2022-08-18T15:40:30.836Z,100.00
2022-08-18T15:43:06.905Z,100.00
2022-08-18T15:45:51.016Z,100.00
2022-08-18T15:48:24.510Z,100.00
2022-08-18T15:50:51.518Z,100.00
2022-08-18T15:53:21.991Z,100.00
2022-08-18T15:55:50.303Z,100.00
2022-08-18T15:58:18.212Z,100.00
2022-08-18T16:00:48.872Z,100.00
2022-08-18T16:03:17.500Z,100.00
2022-08-18T16:05:53.323Z,100.00
2022-08-18T16:08:25.532Z,100.00
2022-08-18T16:10:53.936Z,100.00
2022-08-18T16:13:20.820Z,100.00
2022-08-18T16:15:49.810Z,100.00
2022-08-18T16:18:18.323Z,100.00
2022-08-18T16:20:45.079Z,100.00
2022-08-18T16:23:12.360Z,100.00
2022-08-18T16:25:43.272Z,100.00
2022-08-18T16:28:13.129Z,100.00
2022-08-18T16:30:39.711Z,100.00
2022-08-18T16:33:07.207Z,100.00
2022-08-18T16:35:34.785Z,100.00
2022-08-18T16:38:05.569Z,100.00
2022-08-18T16:40:32.182Z,100.00
2022-08-18T16:43:00.512Z,100.00
2022-08-18T16:45:28.044Z,100.00
2022-08-18T16:47:55.183Z,100.00
2022-08-18T16:50:23.413Z,100.00
2022-08-18T16:52:49.945Z,100.00
2022-08-18T16:55:16.722Z,100.00
2022-08-18T16:58:02.942Z,100.00
2022-08-18T17:00:54.692Z,100.00
2022-08-18T17:03:41.600Z,100.00
2022-08-18T17:06:12.461Z,100.00
2022-08-18T17:08:40.668Z,100.00
2022-08-18T17:11:11.525Z,100.00
2022-08-18T17:13:40.043Z,100.00
2022-08-18T17:16:08.054Z,100.00
2022-08-18T17:18:36.441Z,100.00
2022-08-18T17:21:05.461Z,100.00
2022-08-18T17:23:32.730Z,100.00
2022-08-18T17:26:00.523Z,100.00
2022-08-18T17:28:50.178Z,100.00
2022-08-18T17:31:24.319Z,100.00
2022-08-18T17:33:53.773Z,100.00
2022-08-18T17:36:39.214Z,100.00
2022-08-18T17:39:16.095Z,100.00
2022-08-18T17:42:02.336Z,100.00
2022-08-18T17:44:31.584Z,100.00
2022-08-18T17:47:00.536Z,100.00
2022-08-18T17:50:26.300Z,100.00
2022-08-18T17:52:53.370Z,100.00
2022-08-18T17:55:39.047Z,100.00
2022-08-18T17:58:35.371Z,100.00
2022-08-18T18:01:03.586Z,100.00
2022-08-18T18:03:30.112Z,100.00
2022-08-18T18:08:48.375Z,100.00
2022-08-18T18:11:14.884Z,100.00
2022-08-18T18:13:41.339Z,100.00
2022-08-18T18:16:35.287Z,100.00
2022-08-18T18:19:06.018Z,100.00
2022-08-18T18:22:00.458Z,100.00
2022-08-18T18:24:30.543Z,100.00
2022-08-18T18:26:57.064Z,100.00
2022-08-18T18:29:33.401Z,100.00
2022-08-18T18:32:04.324Z,100.00
2022-08-18T18:34:39.276Z,100.00
2022-08-18T18:37:24.339Z,100.00
2022-08-18T18:39:56.918Z,100.00
2022-08-18T18:42:31.981Z,100.00
2022-08-18T18:45:01.342Z,100.00
2022-08-18T18:47:33.857Z,100.00
2022-08-18T18:50:09.512Z,100.00
2022-08-18T18:53:10.280Z,100.00
2022-08-18T18:55:47.475Z,100.00
2022-08-18T18:58:36.599Z,100.00
2022-08-18T19:01:10.806Z,100.00
2022-08-18T19:03:44.539Z,100.00
2022-08-18T19:06:29.909Z,100.00
2022-08-18T19:09:13.600Z,100.00
2022-08-18T19:12:12.741Z,100.00
2022-08-18T19:14:52.157Z,100.00
2022-08-18T19:17:39.056Z,100.00
2022-08-18T19:20:11.679Z,100.00
2022-08-18T19:22:47.057Z,100.00
2022-08-18T19:25:20.996Z,100.00
2022-08-18T19:28:38.813Z,100.00
2022-08-18T19:31:49.160Z,100.00
2022-08-18T19:34:22.809Z,100.00
2022-08-18T19:37:03.015Z,100.00
2022-08-18T19:39:48.851Z,100.00
2022-08-18T19:42:32.330Z,100.00
2022-08-18T19:45:19.108Z,100.00
2022-08-18T19:48:16.331Z,100.00
2022-08-18T19:51:21.044Z,100.00
2022-08-18T19:53:56.696Z,100.00
2022-08-18T19:56:46.376Z,100.00
2022-08-18T19:59:37.521Z,100.00
2022-08-18T20:02:19.069Z,100.00
2022-08-18T20:04:51.402Z,100.00
2022-08-18T20:07:46.806Z,100.00
2022-08-18T20:10:38.396Z,100.00
2022-08-18T20:13:32.734Z,100.00
2022-08-18T20:16:44.075Z,100.00
2022-08-18T20:19:33.015Z,100.00
2022-08-18T20:22:05.375Z,100.00
2022-08-18T20:24:50.989Z,100.00
2022-08-18T20:27:39.665Z,100.00
2022-08-18T20:30:24.272Z,100.00
2022-08-18T20:33:17.732Z,100.00
2022-08-18T20:35:53.274Z,100.00
2022-08-18T20:38:34.716Z,100.00
2022-08-18T20:41:27.570Z,100.00
2022-08-18T20:44:28.857Z,100.00
2022-08-18T20:47:27.179Z,100.00
2022-08-18T20:50:21.630Z,100.00
2022-08-18T20:52:57.888Z,100.00
2022-08-18T20:55:35.045Z,100.00
2022-08-18T20:58:17.308Z,100.00
2022-08-18T21:00:50.934Z,100.00
2022-08-18T21:03:20.689Z,100.00
2022-08-18T21:05:49.747Z,100.00
2022-08-18T21:08:16.340Z,100.00
2022-08-18T21:10:55.794Z,100.00
2022-08-18T21:13:40.871Z,100.00
2022-08-18T21:16:10.374Z,100.00
2022-08-18T21:18:38.627Z,100.00
2022-08-18T21:21:13.828Z,100.00
2022-08-18T21:23:52.157Z,100.00
2022-08-18T21:26:19.028Z,100.00
2022-08-18T21:28:50.881Z,100.00
2022-08-18T21:31:42.066Z,100.00
2022-08-18T21:34:28.485Z,100.00
2022-08-18T21:36:57.924Z,100.00
2022-08-18T21:39:24.960Z,100.00
2022-08-18T21:41:55.104Z,100.00
2022-08-18T21:44:23.201Z,100.00
2022-08-18T21:46:50.996Z,100.00
2022-08-18T21:49:27.101Z,100.00
2022-08-18T21:51:53.858Z,100.00
2022-08-18T21:54:23.983Z,100.00
2022-08-18T21:57:19.509Z,100.00
2022-08-18T22:00:31.308Z,100.00
2022-08-18T22:03:16.119Z,100.00
2022-08-18T22:05:58.241Z,100.00
2022-08-18T22:08:30.069Z,100.00
2022-08-18T22:11:36.410Z,100.00
2022-08-18T22:14:54.963Z,100.00
2022-08-18T22:17:29.286Z,100.00
2022-08-18T22:20:15.901Z,100.00
2022-08-18T22:23:00.996Z,100.00
2022-08-18T22:25:27.535Z,100.00
2022-08-18T22:27:56.743Z,100.00
2022-08-18T22:30:23.267Z,100.00
2022-08-18T22:32:49.615Z,100.00
2022-08-18T22:35:16.164Z,100.00
2022-08-18T22:37:50.164Z,100.00
2022-08-18T22:40:21.710Z,100.00
2022-08-18T22:42:48.776Z,100.00
2022-08-18T22:45:15.579Z,100.00
2022-08-18T22:47:43.069Z,100.00
2022-08-18T22:50:12.348Z,100.00
2022-08-18T22:52:46.330Z,100.00
2022-08-18T22:55:14.598Z,100.00
2022-08-18T22:57:46.847Z,100.00
2022-08-18T23:00:17.441Z,100.00
2022-08-18T23:02:47.598Z,100.00
2022-08-18T23:05:14.602Z,100.00
2022-08-18T23:07:41.179Z,100.00
2022-08-18T23:10:13.960Z,100.00
2022-08-18T23:12:46.397Z,100.00
2022-08-18T23:15:13.928Z,100.00
2022-08-18T23:17:41.988Z,100.00
2022-08-18T23:20:17.986Z,100.00
2022-08-18T23:22:45.599Z,100.00
2022-08-18T23:25:13.184Z,100.00
2022-08-18T23:27:39.943Z,100.00
2022-08-18T23:30:06.905Z,100.00
2022-08-18T23:32:33.371Z,100.00
2022-08-18T23:35:00.511Z,100.00
2022-08-18T23:37:26.976Z,100.00
2022-08-18T23:39:53.458Z,100.00
2022-08-18T23:42:23.175Z,100.00
2022-08-18T23:44:50.240Z,100.00
2022-08-18T23:47:20.654Z,100.00
2022-08-18T23:49:47.214Z,100.00
2022-08-18T23:52:13.583Z,100.00
2022-08-18T23:54:40.024Z,100.00
2022-08-18T23:57:06.364Z,100.00
2022-08-18T23:59:32.799Z,100.00
